»·PEaware :: N7791P KSNA-KCMA

N7791P :: KSNA-KCMA

FLIGHT INFORMATION

Flight Status: Arrived
Operator: Privately registered:
United States
More flights under this callsign
Pilot: Jon W. (9193)
Aircraft: PIPER PA-24 COMMANCHE
(PA24)
More flights by this aircraft type
Origin: KSNA John Wayne-Orange Co
United States
Destination: KCMA Camarillo
United States
More flights between these airports :: More routes between these airports
Route: +
File this flight plan on PilotEdge
Remarks:
Altitude:
(Current/Filed)
0ft
Speed:
(Current/Filed)
0kts
Departed: 03-Oct-19 09:19 PM
Arrived: 03-Oct-19 09:55 PM
Distance/Time
Traveled:
69nm/0:36
Distance/Time
To Go:
Arrived

Flight Plot

Page will automatically refresh every two minutes.


Map Options




Map Legend


Flown Route
Filed Route
Departure Airport
Arrival Airport
Navaid (VOR, NDB)
Fix

Horizontal Profiles

Position Reports

Time Latitude Longitude Heading Altitude Ground
Speed
03-Oct-19 21:08 33.675378 -117.871556 220 59ft 0kts
03-Oct-19 21:09 33.675373 -117.871560 220 59ft 0kts
03-Oct-19 21:10 33.675369 -117.871564 220 59ft 0kts
03-Oct-19 21:11 33.675366 -117.871568 220 59ft 0kts
03-Oct-19 21:12 33.675340 -117.871588 207 59ft 0kts
03-Oct-19 21:13 33.675324 -117.871597 203 59ft 2kts
03-Oct-19 21:14 33.676011 -117.870194 27 59ft 10kts
03-Oct-19 21:15 33.678989 -117.868356 27 59ft 12kts
03-Oct-19 21:16 33.680900 -117.866568 115 59ft 7kts
03-Oct-19 21:17 33.680773 -117.866234 116 59ft 3kts
03-Oct-19 21:18 33.670858 -117.871659 209 268ft 97kts
03-Oct-19 21:19 33.656089 -117.896500 251 1340ft 96kts
03-Oct-19 21:20 33.646877 -117.927331 252 2189ft 103kts
03-Oct-19 21:21 33.638261 -117.957582 250 3282ft 90kts
03-Oct-19 21:22 33.629941 -117.988039 255 4357ft 98kts
03-Oct-19 21:23 33.627632 -118.019362 330 5207ft 111kts
03-Oct-19 21:24 33.656481 -118.014383 13 6128ft 104kts
03-Oct-19 21:25 33.685611 -118.007979 9 6905ft 108kts
03-Oct-19 21:26 33.715116 -118.001146 9 7811ft 109kts
03-Oct-19 21:27 33.743310 -118.007988 314 8469ft 119kts
03-Oct-19 21:28 33.771535 -118.040712 309 8513ft 154kts
03-Oct-19 21:29 33.801926 -118.078495 308 8513ft 160kts
03-Oct-19 21:30 33.835760 -118.113903 323 8501ft 162kts
03-Oct-19 21:31 33.874238 -118.146413 326 8511ft 170kts
03-Oct-19 21:32 33.912832 -118.177193 325 8505ft 164kts
03-Oct-19 21:33 33.949049 -118.211023 317 8501ft 164kts
03-Oct-19 21:34 33.983723 -118.249533 316 8502ft 169kts
03-Oct-19 21:35 34.020196 -118.288155 319 8504ft 173kts
03-Oct-19 21:36 34.056895 -118.323414 321 8503ft 165kts
03-Oct-19 21:37 34.092331 -118.358417 318 8502ft 163kts
03-Oct-19 21:38 34.126652 -118.393809 320 8503ft 161kts
03-Oct-19 21:39 34.162706 -118.430097 320 8508ft 170kts
03-Oct-19 21:40 34.198037 -118.465950 319 8509ft 162kts
03-Oct-19 21:41 34.221483 -118.508554 267 8511ft 159kts
03-Oct-19 21:42 34.219824 -118.566404 268 7981ft 182kts
03-Oct-19 21:43 34.219261 -118.628627 273 7116ft 186kts
03-Oct-19 21:44 34.224563 -118.690183 272 6080ft 182kts
03-Oct-19 21:45 34.227534 -118.751331 273 5247ft 179kts
03-Oct-19 21:46 34.229733 -118.809100 272 4512ft 169kts
03-Oct-19 21:47 34.231268 -118.864713 273 3593ft 163kts
03-Oct-19 21:48 34.232194 -118.918431 274 2681ft 148kts
03-Oct-19 21:49 34.220339 -118.958190 246 2341ft 115kts
03-Oct-19 21:50 34.212131 -118.989938 268 1912ft 92kts
03-Oct-19 21:51 34.212711 -119.021005 273 1178ft 90kts
03-Oct-19 21:52 34.213314 -119.050291 270 628ft 85kts
03-Oct-19 21:53 34.213583 -119.077638 271 206ft 79kts
03-Oct-19 21:54 34.213599 -119.094971 232 78ft 8kts
03-Oct-19 21:55 34.212252 -119.095721 174 78ft 5kts
03-Oct-19 21:56 34.211050 -119.093899 90 78ft 11kts
03-Oct-19 21:57 34.211000 -119.089784 96 78ft 7kts
03-Oct-19 21:58 34.210674 -119.089485 89 78ft 0kts
03-Oct-19 21:59 34.210674 -119.089480 89 78ft 0kts
03-Oct-19 22:00 34.210674 -119.089477 89 78ft 0kts
03-Oct-19 22:01 34.210674 -119.089477 89 78ft 0kts
03-Oct-19 22:02 34.210674 -119.089477 89 78ft 0kts
03-Oct-19 22:03 34.210674 -119.089477 89 78ft 0kts
03-Oct-19 22:04 34.210674 -119.089477 89 78ft 0kts
03-Oct-19 22:05 34.210674 -119.089477 89 78ft 0kts
03-Oct-19 22:06 34.210674 -119.089477 89 78ft 0kts

Navigation Log

Ident Type
Flight plan parsing failed, navigation log unavailable